sensor_id;sensor_type;location;lat;lon;timestamp;pressure;altitude;pressure_sealevel;temperature;humidity
21547;BME280;41275;51.912;4.388;2023-03-26T00:02:54;100673.25;;;16.47;51.17
21547;BME280;41275;51.912;4.388;2023-03-26T00:08:15;100663.09;;;16.43;51.29
21547;BME280;41275;51.912;4.388;2023-03-26T00:13:37;100654.81;;;16.40;51.87
21547;BME280;41275;51.912;4.388;2023-03-26T00:18:59;100650.81;;;16.37;51.55
21547;BME280;41275;51.912;4.388;2023-03-26T00:24:21;100643.34;;;16.34;51.82
21547;BME280;41275;51.912;4.388;2023-03-26T00:29:49;100633.47;;;16.30;51.62
21547;BME280;41275;51.912;4.388;2023-03-26T00:35:11;100636.69;;;16.32;51.62
21547;BME280;41275;51.912;4.388;2023-03-26T00:40:33;100616.13;;;16.27;51.79
21547;BME280;41275;51.912;4.388;2023-03-26T00:45:56;100604.91;;;16.25;51.63
21547;BME280;41275;51.912;4.388;2023-03-26T00:51:19;100603.03;;;16.10;52.33
21547;BME280;41275;51.912;4.388;2023-03-26T00:56:40;100599.03;;;15.87;52.59
21547;BME280;41275;51.912;4.388;2023-03-26T01:02:02;100605.47;;;15.76;53.02
21547;BME280;41275;51.912;4.388;2023-03-26T01:07:25;100598.72;;;15.63;52.66
21547;BME280;41275;51.912;4.388;2023-03-26T01:12:48;100586.19;;;15.54;52.64
21547;BME280;41275;51.912;4.388;2023-03-26T01:18:10;100583.53;;;15.54;52.88
21547;BME280;41275;51.912;4.388;2023-03-26T01:29:42;100562.72;;;15.45;53.22
21547;BME280;41275;51.912;4.388;2023-03-26T01:35:07;100548.31;;;15.46;53.59
21547;BME280;41275;51.912;4.388;2023-03-26T01:40:36;100541.38;;;15.51;54.10
21547;BME280;41275;51.912;4.388;2023-03-26T01:46:04;100541.41;;;15.71;53.76
21547;BME280;41275;51.912;4.388;2023-03-26T01:51:34;100541.69;;;15.85;53.77
21547;BME280;41275;51.912;4.388;2023-03-26T01:57:15;100540.34;;;15.92;53.64
21547;BME280;41275;51.912;4.388;2023-03-26T02:08:08;100512.59;;;15.93;53.29
21547;BME280;41275;51.912;4.388;2023-03-26T02:13:31;100505.13;;;15.85;53.26
21547;BME280;41275;51.912;4.388;2023-03-26T02:18:53;100500.06;;;15.74;53.54
21547;BME280;41275;51.912;4.388;2023-03-26T02:24:19;100489.94;;;15.81;53.40
21547;BME280;41275;51.912;4.388;2023-03-26T02:29:40;100474.44;;;15.67;53.54
21547;BME280;41275;51.912;4.388;2023-03-26T02:35:02;100471.78;;;15.62;53.38
21547;BME280;41275;51.912;4.388;2023-03-26T02:40:25;100471.78;;;15.57;53.29
21547;BME280;41275;51.912;4.388;2023-03-26T02:45:46;100463.50;;;15.54;53.35
21547;BME280;41275;51.912;4.388;2023-03-26T02:51:07;100470.44;;;15.55;53.05
21547;BME280;41275;51.912;4.388;2023-03-26T02:56:29;100460.81;;;15.64;52.62
21547;BME280;41275;51.912;4.388;2023-03-26T03:01:50;100458.97;;;15.75;52.62
21547;BME280;41275;51.912;4.388;2023-03-26T03:07:11;100455.50;;;15.79;52.46
21547;BME280;41275;51.912;4.388;2023-03-26T03:12:34;100442.19;;;15.74;52.29
21547;BME280;41275;51.912;4.388;2023-03-26T03:17:56;100436.59;;;15.65;51.98
21547;BME280;41275;51.912;4.388;2023-03-26T03:23:18;100430.72;;;15.68;52.19
21547;BME280;41275;51.912;4.388;2023-03-26T03:28:39;100409.63;;;15.77;51.87
21547;BME280;41275;51.912;4.388;2023-03-26T03:34:00;100406.94;;;15.82;51.88
21547;BME280;41275;51.912;4.388;2023-03-26T03:39:21;100398.97;;;15.77;51.47
21547;BME280;41275;51.912;4.388;2023-03-26T03:44:43;100390.66;;;15.79;51.86
21547;BME280;41275;51.912;4.388;2023-03-26T03:50:05;100391.19;;;15.86;52.19
21547;BME280;41275;51.912;4.388;2023-03-26T03:55:26;100387.16;;;15.93;52.01
21547;BME280;41275;51.912;4.388;2023-03-26T04:00:49;100384.22;;;16.00;51.79
21547;BME280;41275;51.912;4.388;2023-03-26T04:06:11;100368.16;;;16.05;51.37
21547;BME280;41275;51.912;4.388;2023-03-26T04:11:32;100363.09;;;16.09;51.19
21547;BME280;41275;51.912;4.388;2023-03-26T04:16:53;100348.94;;;16.08;51.32
21547;BME280;41275;51.912;4.388;2023-03-26T04:22:15;100344.09;;;16.15;51.22
21547;BME280;41275;51.912;4.388;2023-03-26T04:27:39;100331.03;;;16.14;51.24
21547;BME280;41275;51.912;4.388;2023-03-26T04:33:03;100320.63;;;16.12;51.00
21547;BME280;41275;51.912;4.388;2023-03-26T04:38:30;100319.50;;;16.18;51.50
21547;BME280;41275;51.912;4.388;2023-03-26T04:43:54;100306.16;;;16.24;51.54
21547;BME280;41275;51.912;4.388;2023-03-26T04:49:16;100291.19;;;16.23;51.14
21547;BME280;41275;51.912;4.388;2023-03-26T04:54:38;100277.09;;;16.17;51.55
21547;BME280;41275;51.912;4.388;2023-03-26T04:59:59;100275.50;;;16.11;51.57
21547;BME280;41275;51.912;4.388;2023-03-26T05:05:21;100262.72;;;16.08;51.76
21547;BME280;41275;51.912;4.388;2023-03-26T05:10:42;100255.31;;;16.00;52.24
21547;BME280;41275;51.912;4.388;2023-03-26T05:16:04;100255.31;;;16.00;52.06
21547;BME280;41275;51.912;4.388;2023-03-26T05:21:25;100249.16;;;15.99;52.16
21547;BME280;41275;51.912;4.388;2023-03-26T05:26:46;100242.22;;;15.98;52.36
21547;BME280;41275;51.912;4.388;2023-03-26T05:32:08;100238.47;;;15.99;52.36
21547;BME280;41275;51.912;4.388;2023-03-26T05:37:30;100237.19;;;15.97;52.17
21547;BME280;41275;51.912;4.388;2023-03-26T05:42:51;100237.97;;;15.97;52.12
21547;BME280;41275;51.912;4.388;2023-03-26T05:48:28;100233.19;;;15.94;52.07
21547;BME280;41275;51.912;4.388;2023-03-26T05:53:50;100235.34;;;15.92;51.84
21547;BME280;41275;51.912;4.388;2023-03-26T05:59:14;100231.34;;;15.89;52.25
21547;BME280;41275;51.912;4.388;2023-03-26T06:04:36;100230.56;;;15.89;52.33
21547;BME280;41275;51.912;4.388;2023-03-26T06:10:00;100224.38;;;15.93;52.13
21547;BME280;41275;51.912;4.388;2023-03-26T06:15:22;100218.75;;;15.95;52.17
21547;BME280;41275;51.912;4.388;2023-03-26T06:20:44;100222.22;;;16.01;52.17
21547;BME280;41275;51.912;4.388;2023-03-26T06:26:05;100212.38;;;15.96;51.62
21547;BME280;41275;51.912;4.388;2023-03-26T06:31:26;100202.25;;;15.93;52.03
21547;BME280;41275;51.912;4.388;2023-03-26T06:36:47;100207.53;;;15.98;51.99
21547;BME280;41275;51.912;4.388;2023-03-26T06:42:12;100202.69;;;16.05;51.92
21547;BME280;41275;51.912;4.388;2023-03-26T06:47:33;100200.81;;;16.06;51.93
21547;BME280;41275;51.912;4.388;2023-03-26T06:52:55;100202.66;;;16.10;51.92
21547;BME280;41275;51.912;4.388;2023-03-26T06:58:16;100194.94;;;16.09;51.98
21547;BME280;41275;51.912;4.388;2023-03-26T07:03:37;100199.38;;;16.24;51.56
21547;BME280;41275;51.912;4.388;2023-03-26T07:08:58;100193.00;;;16.19;51.86
21547;BME280;41275;51.912;4.388;2023-03-26T07:14:20;100193.50;;;16.22;51.95
21547;BME280;41275;51.912;4.388;2023-03-26T07:19:41;100191.25;;;16.34;51.24
21547;BME280;41275;51.912;4.388;2023-03-26T07:25:03;100186.69;;;16.34;51.56
21547;BME280;41275;51.912;4.388;2023-03-26T07:36:36;100181.75;;;16.52;51.36
21547;BME280;41275;51.912;4.388;2023-03-26T07:42:15;100183.72;;;16.41;51.61
21547;BME280;41275;51.912;4.388;2023-03-26T07:47:38;100183.53;;;16.32;51.92
21547;BME280;41275;51.912;4.388;2023-03-26T07:53:01;100190.22;;;16.30;51.55
21547;BME280;41275;51.912;4.388;2023-03-26T07:58:44;100185.31;;;16.42;51.69
21547;BME280;41275;51.912;4.388;2023-03-26T08:04:45;100188.56;;;16.39;51.35
21547;BME280;41275;51.912;4.388;2023-03-26T08:21:28;100193.09;;;16.67;51.67
21547;BME280;41275;51.912;4.388;2023-03-26T08:26:57;100181.16;;;16.89;51.38
21547;BME280;41275;51.912;4.388;2023-03-26T08:32:21;100181.75;;;17.10;50.51
21547;BME280;41275;51.912;4.388;2023-03-26T08:37:43;100189.50;;;17.30;50.86
21547;BME280;41275;51.912;4.388;2023-03-26T08:49:02;100186.00;;;17.54;50.22
21547;BME280;41275;51.912;4.388;2023-03-26T09:00:22;100188.13;;;17.76;49.60
21547;BME280;41275;51.912;4.388;2023-03-26T09:05:58;100187.38;;;17.70;49.14
21547;BME280;41275;51.912;4.388;2023-03-26T09:23:05;100194.94;;;18.38;47.44
21547;BME280;41275;51.912;4.388;2023-03-26T09:28:57;100191.50;;;18.19;47.29
21547;BME280;41275;51.912;4.388;2023-03-26T09:34:32;100197.13;;;18.36;46.79
21547;BME280;41275;51.912;4.388;2023-03-26T09:40:03;100201.16;;;18.34;46.94
21547;BME280;41275;51.912;4.388;2023-03-26T09:45:55;100201.94;;;18.02;47.26
21547;BME280;41275;51.912;4.388;2023-03-26T09:57:55;100219.97;;;17.77;47.83
21547;BME280;41275;51.912;4.388;2023-03-26T10:20:57;100236.78;;;17.35;49.41
21547;BME280;41275;51.912;4.388;2023-03-26T10:26:50;100245.19;;;16.99;49.57
21547;BME280;41275;51.912;4.388;2023-03-26T10:38:23;100256.03;;;16.84;49.92
21547;BME280;41275;51.912;4.388;2023-03-26T10:44:15;100266.28;;;16.72;50.32
21547;BME280;41275;51.912;4.388;2023-03-26T10:55:35;100274.53;;;16.70;50.48
21547;BME280;41275;51.912;4.388;2023-03-26T11:01:10;100270.22;;;16.45;50.64
21547;BME280;41275;51.912;4.388;2023-03-26T11:34:42;100321.59;;;16.27;50.38
21547;BME280;41275;51.912;4.388;2023-03-26T11:40:13;100331.19;;;16.33;49.91
21547;BME280;41275;51.912;4.388;2023-03-26T11:45:44;100335.16;;;16.40;49.77
21547;BME280;41275;51.912;4.388;2023-03-26T11:51:08;100344.84;;;16.71;49.71
21547;BME280;41275;51.912;4.388;2023-03-26T11:56:36;100356.97;;;16.92;48.96
21547;BME280;41275;51.912;4.388;2023-03-26T12:07:32;100373.81;;;16.48;48.72
21547;BME280;41275;51.912;4.388;2023-03-26T12:12:57;100383.88;;;16.17;48.62
21547;BME280;41275;51.912;4.388;2023-03-26T12:18:24;100392.03;;;15.76;48.51
21547;BME280;41275;51.912;4.388;2023-03-26T12:23:56;100401.13;;;15.65;48.47
21547;BME280;41275;51.912;4.388;2023-03-26T12:29:17;100397.88;;;15.78;48.91
21547;BME280;41275;51.912;4.388;2023-03-26T12:34:40;100411.94;;;16.09;48.42
21547;BME280;41275;51.912;4.388;2023-03-26T12:40:22;100417.78;;;16.16;48.62
21547;BME280;41275;51.912;4.388;2023-03-26T12:45:53;100422.91;;;16.57;48.06
21547;BME280;41275;51.912;4.388;2023-03-26T13:14:11;100441.50;;;19.09;43.33
21547;BME280;41275;51.912;4.388;2023-03-26T13:19:54;100453.47;;;18.98;41.99
21547;BME280;41275;51.912;4.388;2023-03-26T13:25:27;100458.00;;;18.40;41.75
21547;BME280;41275;51.912;4.388;2023-03-26T13:31:02;100455.66;;;18.10;41.64
21547;BME280;41275;51.912;4.388;2023-03-26T13:36:35;100472.28;;;17.83;41.54
21547;BME280;41275;51.912;4.388;2023-03-26T13:42:20;100475.66;;;17.94;41.28
21547;BME280;41275;51.912;4.388;2023-03-26T13:47:48;100481.06;;;18.36;40.72
21547;BME280;41275;51.912;4.388;2023-03-26T13:53:20;100477.53;;;19.03;39.67
21547;BME280;41275;51.912;4.388;2023-03-26T13:58:49;100487.38;;;19.59;38.26
21547;BME280;41275;51.912;4.388;2023-03-26T14:04:28;100487.03;;;19.14;37.81
21547;BME280;41275;51.912;4.388;2023-03-26T14:10:00;100499.72;;;18.89;37.85
21547;BME280;41275;51.912;4.388;2023-03-26T14:15:28;100503.59;;;18.78;38.13
21547;BME280;41275;51.912;4.388;2023-03-26T14:39:20;100530.44;;;19.35;34.95
21547;BME280;41275;51.912;4.388;2023-03-26T15:31:26;100638.34;;;17.13;36.53
21547;BME280;41275;51.912;4.388;2023-03-26T15:54:06;100680.72;;;16.34;36.72
21547;BME280;41275;51.912;4.388;2023-03-26T15:59:40;100697.81;;;16.43;36.48
21547;BME280;41275;51.912;4.388;2023-03-26T16:10:55;100721.88;;;16.59;35.51
21547;BME280;41275;51.912;4.388;2023-03-26T16:22:11;100744.81;;;16.50;35.13
21547;BME280;41275;51.912;4.388;2023-03-26T16:27:35;100758.47;;;16.43;34.89
21547;BME280;41275;51.912;4.388;2023-03-26T16:33:07;100761.09;;;16.38;34.68
21547;BME280;41275;51.912;4.388;2023-03-26T16:44:42;100796.56;;;16.03;34.19
21547;BME280;41275;51.912;4.388;2023-03-26T16:56:25;100810.56;;;15.67;34.18
21547;BME280;41275;51.912;4.388;2023-03-26T17:02:27;100837.47;;;15.61;34.40
21547;BME280;41275;51.912;4.388;2023-03-26T17:08:02;100845.41;;;15.45;34.94
21547;BME280;41275;51.912;4.388;2023-03-26T17:19:37;100878.78;;;15.16;35.22
21547;BME280;41275;51.912;4.388;2023-03-26T17:36:40;100914.94;;;14.75;36.07
21547;BME280;41275;51.912;4.388;2023-03-26T17:42:16;100925.38;;;14.81;35.76
21547;BME280;41275;51.912;4.388;2023-03-26T17:47:55;100935.16;;;14.70;34.77
21547;BME280;41275;51.912;4.388;2023-03-26T17:53:22;100947.41;;;14.49;34.02
21547;BME280;41275;51.912;4.388;2023-03-26T17:58:46;100956.25;;;14.33;33.99
21547;BME280;41275;51.912;4.388;2023-03-26T18:04:18;100971.75;;;14.36;34.51
21547;BME280;41275;51.912;4.388;2023-03-26T18:15:35;101009.63;;;14.43;34.80
21547;BME280;41275;51.912;4.388;2023-03-26T18:20:59;101017.13;;;14.24;35.42
21547;BME280;41275;51.912;4.388;2023-03-26T18:26:41;101037.94;;;14.11;36.00
21547;BME280;41275;51.912;4.388;2023-03-26T18:37:31;101061.34;;;13.92;35.99
21547;BME280;41275;51.912;4.388;2023-03-26T18:42:57;101082.06;;;13.90;35.94
21547;BME280;41275;51.912;4.388;2023-03-26T18:48:20;101096.16;;;13.90;35.64
21547;BME280;41275;51.912;4.388;2023-03-26T18:53:50;101106.47;;;13.87;35.91
21547;BME280;41275;51.912;4.388;2023-03-26T19:04:42;101118.19;;;13.40;36.39
21547;BME280;41275;51.912;4.388;2023-03-26T19:10:04;101137.75;;;13.22;36.59
21547;BME280;41275;51.912;4.388;2023-03-26T19:15:29;101138.81;;;13.10;36.56
21547;BME280;41275;51.912;4.388;2023-03-26T19:20:54;101136.06;;;12.93;36.83
21547;BME280;41275;51.912;4.388;2023-03-26T19:26:23;101152.59;;;12.83;36.40
21547;BME280;41275;51.912;4.388;2023-03-26T19:31:49;101161.63;;;12.70;36.70
21547;BME280;41275;51.912;4.388;2023-03-26T19:37:21;101171.31;;;12.65;36.75
21547;BME280;41275;51.912;4.388;2023-03-26T19:42:43;101180.69;;;12.56;36.84
21547;BME280;41275;51.912;4.388;2023-03-26T19:48:06;101184.25;;;12.49;37.00
21547;BME280;41275;51.912;4.388;2023-03-26T19:58:53;101203.63;;;12.38;37.49
21547;BME280;41275;51.912;4.388;2023-03-26T20:04:14;101212.16;;;12.40;37.29
21547;BME280;41275;51.912;4.388;2023-03-26T20:09:35;101229.38;;;12.49;36.91
21547;BME280;41275;51.912;4.388;2023-03-26T20:14:56;101241.63;;;12.62;36.86
21547;BME280;41275;51.912;4.388;2023-03-26T20:20:18;101258.13;;;12.64;36.66
21547;BME280;41275;51.912;4.388;2023-03-26T20:25:45;101262.72;;;12.57;36.81
21547;BME280;41275;51.912;4.388;2023-03-26T20:31:24;101271.22;;;12.77;36.24
21547;BME280;41275;51.912;4.388;2023-03-26T20:36:46;101281.84;;;12.89;36.30
21547;BME280;41275;51.912;4.388;2023-03-26T20:42:14;101290.28;;;12.98;36.14
21547;BME280;41275;51.912;4.388;2023-03-26T20:47:35;101298.47;;;13.08;36.35
21547;BME280;41275;51.912;4.388;2023-03-26T20:52:57;101298.47;;;13.08;36.30
21547;BME280;41275;51.912;4.388;2023-03-26T20:58:20;101309.94;;;13.20;36.32
21547;BME280;41275;51.912;4.388;2023-03-26T21:03:42;101329.22;;;13.27;36.34
21547;BME280;41275;51.912;4.388;2023-03-26T21:09:04;101333.63;;;13.34;36.10
21547;BME280;41275;51.912;4.388;2023-03-26T21:14:37;101347.38;;;13.31;36.17
21547;BME280;41275;51.912;4.388;2023-03-26T21:20:01;101343.00;;;13.36;36.74
21547;BME280;41275;51.912;4.388;2023-03-26T21:25:47;101350.16;;;13.36;36.88
21547;BME280;41275;51.912;4.388;2023-03-26T21:31:15;101360.31;;;13.27;37.17
21547;BME280;41275;51.912;4.388;2023-03-26T21:36:40;101365.44;;;13.29;37.44
21547;BME280;41275;51.912;4.388;2023-03-26T21:42:02;101375.47;;;13.26;37.53
21547;BME280;41275;51.912;4.388;2023-03-26T21:47:23;101375.19;;;13.16;37.70
21547;BME280;41275;51.912;4.388;2023-03-26T21:52:44;101391.28;;;13.21;38.41
21547;BME280;41275;51.912;4.388;2023-03-26T22:03:54;101410.19;;;13.01;38.62
21547;BME280;41275;51.912;4.388;2023-03-26T22:09:15;101426.50;;;13.05;38.51
21547;BME280;41275;51.912;4.388;2023-03-26T22:14:37;101429.88;;;12.82;39.19
21547;BME280;41275;51.912;4.388;2023-03-26T22:19:58;101443.16;;;12.82;39.85
21547;BME280;41275;51.912;4.388;2023-03-26T22:25:25;101461.31;;;12.85;40.29
21547;BME280;41275;51.912;4.388;2023-03-26T22:30:49;101459.34;;;12.92;40.41
21547;BME280;41275;51.912;4.388;2023-03-26T22:36:11;101462.63;;;13.06;40.49
21547;BME280;41275;51.912;4.388;2023-03-26T22:41:32;101469.13;;;13.10;40.56
21547;BME280;41275;51.912;4.388;2023-03-26T22:46:53;101473.50;;;13.16;40.48
21547;BME280;41275;51.912;4.388;2023-03-26T22:52:16;101486.47;;;13.13;40.10
21547;BME280;41275;51.912;4.388;2023-03-26T22:57:38;101493.47;;;13.07;40.13
21547;BME280;41275;51.912;4.388;2023-03-26T23:02:59;101502.38;;;13.01;40.21
21547;BME280;41275;51.912;4.388;2023-03-26T23:08:21;101511.22;;;12.95;40.75
21547;BME280;41275;51.912;4.388;2023-03-26T23:13:43;101526.94;;;12.96;41.24
21547;BME280;41275;51.912;4.388;2023-03-26T23:19:07;101528.66;;;12.91;41.30
21547;BME280;41275;51.912;4.388;2023-03-26T23:24:29;101536.28;;;12.69;41.26
21547;BME280;41275;51.912;4.388;2023-03-26T23:29:50;101548.16;;;12.66;41.36
21547;BME280;41275;51.912;4.388;2023-03-26T23:35:11;101558.06;;;12.77;41.34
21547;BME280;41275;51.912;4.388;2023-03-26T23:40:32;101580.91;;;12.78;41.23
21547;BME280;41275;51.912;4.388;2023-03-26T23:45:54;101568.00;;;12.82;40.75
21547;BME280;41275;51.912;4.388;2023-03-26T23:51:17;101578.75;;;12.87;40.66
21547;BME280;41275;51.912;4.388;2023-03-26T23:56:42;101582.59;;;12.91;40.84
